sensor_id;sensor_type;location;lat;lon;timestamp;temperature;humidity
5150;DHT22;2593;52.466;13.436;2022-12-18T00:01:47;-4.80;99.90
5150;DHT22;2593;52.466;13.436;2022-12-18T00:04:22;-4.80;99.90
5150;DHT22;2593;52.466;13.436;2022-12-18T00:06:48;-4.80;99.90
5150;DHT22;2593;52.466;13.436;2022-12-18T00:09:13;-4.70;99.90
5150;DHT22;2593;52.466;13.436;2022-12-18T00:11:39;-4.90;15.60
5150;DHT22;2593;52.466;13.436;2022-12-18T00:14:05;-4.90;13.50
5150;DHT22;2593;52.466;13.436;2022-12-18T00:16:30;-5.00;1.00
5150;DHT22;2593;52.466;13.436;2022-12-18T00:18:59;-5.10;69.80
5150;DHT22;2593;52.466;13.436;2022-12-18T00:21:25;-5.10;99.90
5150;DHT22;2593;52.466;13.436;2022-12-18T00:23:52;-5.00;1.00
5150;DHT22;2593;52.466;13.436;2022-12-18T00:26:21;-4.90;1.00
5150;DHT22;2593;52.466;13.436;2022-12-18T00:28:47;-4.80;1.00
5150;DHT22;2593;52.466;13.436;2022-12-18T00:31:16;-4.80;1.00
5150;DHT22;2593;52.466;13.436;2022-12-18T00:33:42;-4.70;1.00
5150;DHT22;2593;52.466;13.436;2022-12-18T00:36:14;-4.70;1.00
5150;DHT22;2593;52.466;13.436;2022-12-18T00:38:41;-4.60;99.90
5150;DHT22;2593;52.466;13.436;2022-12-18T00:41:08;-4.60;99.90
5150;DHT22;2593;52.466;13.436;2022-12-18T00:43:34;-4.70;99.90
5150;DHT22;2593;52.466;13.436;2022-12-18T00:45:59;-4.80;1.00
5150;DHT22;2593;52.466;13.436;2022-12-18T00:48:25;-4.80;43.10
5150;DHT22;2593;52.466;13.436;2022-12-18T00:50:51;-4.90;99.90
5150;DHT22;2593;52.466;13.436;2022-12-18T00:53:17;-4.90;1.00
5150;DHT22;2593;52.466;13.436;2022-12-18T00:55:43;-5.10;99.90
5150;DHT22;2593;52.466;13.436;2022-12-18T00:58:10;-5.10;1.00
5150;DHT22;2593;52.466;13.436;2022-12-18T01:00:36;-5.00;1.00
5150;DHT22;2593;52.466;13.436;2022-12-18T01:03:02;-5.10;1.00
5150;DHT22;2593;52.466;13.436;2022-12-18T01:05:28;-5.20;99.90
5150;DHT22;2593;52.466;13.436;2022-12-18T01:07:55;-5.20;1.00
5150;DHT22;2593;52.466;13.436;2022-12-18T01:10:21;-5.20;1.00
5150;DHT22;2593;52.466;13.436;2022-12-18T01:12:47;-5.30;1.00
5150;DHT22;2593;52.466;13.436;2022-12-18T01:15:14;-5.20;99.90
5150;DHT22;2593;52.466;13.436;2022-12-18T01:17:40;-5.30;98.00
5150;DHT22;2593;52.466;13.436;2022-12-18T01:20:07;-5.20;99.90
5150;DHT22;2593;52.466;13.436;2022-12-18T01:22:34;-5.20;99.90
5150;DHT22;2593;52.466;13.436;2022-12-18T01:25:00;-5.20;98.00
5150;DHT22;2593;52.466;13.436;2022-12-18T01:27:26;-5.30;1.00
5150;DHT22;2593;52.466;13.436;2022-12-18T01:29:51;-5.30;1.00
5150;DHT22;2593;52.466;13.436;2022-12-18T01:32:17;-5.40;43.60
5150;DHT22;2593;52.466;13.436;2022-12-18T01:34:43;-5.20;99.90
5150;DHT22;2593;52.466;13.436;2022-12-18T01:37:08;-5.20;99.90
5150;DHT22;2593;52.466;13.436;2022-12-18T01:39:34;-5.10;99.90
5150;DHT22;2593;52.466;13.436;2022-12-18T01:42:02;-5.10;48.60
5150;DHT22;2593;52.466;13.436;2022-12-18T01:44:53;-5.20;1.00
5150;DHT22;2593;52.466;13.436;2022-12-18T01:50:25;-5.40;1.00
5150;DHT22;2593;52.466;13.436;2022-12-18T01:53:05;-5.40;1.00
5150;DHT22;2593;52.466;13.436;2022-12-18T01:55:37;-5.40;1.00
5150;DHT22;2593;52.466;13.436;2022-12-18T01:58:04;-5.40;16.70
5150;DHT22;2593;52.466;13.436;2022-12-18T02:00:30;-5.40;99.90
5150;DHT22;2593;52.466;13.436;2022-12-18T02:02:56;-5.30;99.90
5150;DHT22;2593;52.466;13.436;2022-12-18T02:05:40;-5.20;99.90
5150;DHT22;2593;52.466;13.436;2022-12-18T02:08:32;-5.20;4.90
5150;DHT22;2593;52.466;13.436;2022-12-18T02:16:54;-5.40;99.90
5150;DHT22;2593;52.466;13.436;2022-12-18T02:22:20;-5.50;99.90
5150;DHT22;2593;52.466;13.436;2022-12-18T02:25:21;-5.40;1.00
5150;DHT22;2593;52.466;13.436;2022-12-18T02:27:50;-5.40;99.90
5150;DHT22;2593;52.466;13.436;2022-12-18T02:30:18;-5.30;99.90
5150;DHT22;2593;52.466;13.436;2022-12-18T02:32:48;-5.30;94.70
5150;DHT22;2593;52.466;13.436;2022-12-18T02:35:20;-5.30;34.60
5150;DHT22;2593;52.466;13.436;2022-12-18T02:37:46;-5.20;88.00
5150;DHT22;2593;52.466;13.436;2022-12-18T02:40:14;-5.10;8.40
5150;DHT22;2593;52.466;13.436;2022-12-18T02:42:40;-5.10;1.00
5150;DHT22;2593;52.466;13.436;2022-12-18T02:45:06;-5.10;99.90
5150;DHT22;2593;52.466;13.436;2022-12-18T02:47:36;-5.20;43.50
5150;DHT22;2593;52.466;13.436;2022-12-18T02:50:33;-5.20;1.00
5150;DHT22;2593;52.466;13.436;2022-12-18T03:03:56;-5.30;1.00
5150;DHT22;2593;52.466;13.436;2022-12-18T03:06:38;-5.40;1.00
5150;DHT22;2593;52.466;13.436;2022-12-18T03:09:12;-5.50;1.00
5150;DHT22;2593;52.466;13.436;2022-12-18T03:11:42;-5.40;99.90
5150;DHT22;2593;52.466;13.436;2022-12-18T03:14:32;-5.40;99.90
5150;DHT22;2593;52.466;13.436;2022-12-18T03:17:01;-5.60;99.90
5150;DHT22;2593;52.466;13.436;2022-12-18T03:19:29;-5.50;1.00
5150;DHT22;2593;52.466;13.436;2022-12-18T03:21:58;-5.40;99.90
5150;DHT22;2593;52.466;13.436;2022-12-18T03:24:28;-5.50;60.60
5150;DHT22;2593;52.466;13.436;2022-12-18T03:27:00;-5.30;30.00
5150;DHT22;2593;52.466;13.436;2022-12-18T03:29:35;-5.40;99.90
5150;DHT22;2593;52.466;13.436;2022-12-18T03:32:10;-5.50;1.00
5150;DHT22;2593;52.466;13.436;2022-12-18T03:34:39;-5.60;99.90
5150;DHT22;2593;52.466;13.436;2022-12-18T03:37:06;-5.60;1.00
5150;DHT22;2593;52.466;13.436;2022-12-18T03:39:33;-5.70;1.00
5150;DHT22;2593;52.466;13.436;2022-12-18T03:42:27;-5.80;1.00
5150;DHT22;2593;52.466;13.436;2022-12-18T03:45:12;-5.70;1.00
5150;DHT22;2593;52.466;13.436;2022-12-18T03:50:26;-5.60;1.00
5150;DHT22;2593;52.466;13.436;2022-12-18T03:53:25;-5.60;1.00
5150;DHT22;2593;52.466;13.436;2022-12-18T03:55:52;-5.50;99.90
5150;DHT22;2593;52.466;13.436;2022-12-18T03:58:22;-5.50;1.00
5150;DHT22;2593;52.466;13.436;2022-12-18T04:00:48;-5.50;99.90
5150;DHT22;2593;52.466;13.436;2022-12-18T04:03:16;-5.50;52.10
5150;DHT22;2593;52.466;13.436;2022-12-18T04:05:44;-5.70;34.60
5150;DHT22;2593;52.466;13.436;2022-12-18T04:08:10;-5.70;99.90
5150;DHT22;2593;52.466;13.436;2022-12-18T04:10:36;-5.80;1.00
5150;DHT22;2593;52.466;13.436;2022-12-18T04:13:02;-5.80;19.30
5150;DHT22;2593;52.466;13.436;2022-12-18T04:15:28;-5.70;1.00
5150;DHT22;2593;52.466;13.436;2022-12-18T04:17:54;-5.80;1.00
5150;DHT22;2593;52.466;13.436;2022-12-18T04:20:19;-5.80;7.40
5150;DHT22;2593;52.466;13.436;2022-12-18T04:22:45;-5.90;99.90
5150;DHT22;2593;52.466;13.436;2022-12-18T04:25:10;-5.90;1.00
5150;DHT22;2593;52.466;13.436;2022-12-18T04:27:36;-6.10;1.00
5150;DHT22;2593;52.466;13.436;2022-12-18T04:30:02;-6.10;99.90
5150;DHT22;2593;52.466;13.436;2022-12-18T04:32:28;-6.00;99.90
5150;DHT22;2593;52.466;13.436;2022-12-18T04:34:54;-6.00;99.90
5150;DHT22;2593;52.466;13.436;2022-12-18T04:37:19;-6.00;99.90
5150;DHT22;2593;52.466;13.436;2022-12-18T04:39:45;-6.00;1.00
5150;DHT22;2593;52.466;13.436;2022-12-18T04:42:10;-6.00;99.90
5150;DHT22;2593;52.466;13.436;2022-12-18T04:44:36;-6.00;99.90
5150;DHT22;2593;52.466;13.436;2022-12-18T04:47:02;-6.10;99.90
5150;DHT22;2593;52.466;13.436;2022-12-18T04:49:28;-6.10;99.90
5150;DHT22;2593;52.466;13.436;2022-12-18T04:51:53;-6.10;99.90
5150;DHT22;2593;52.466;13.436;2022-12-18T04:54:19;-6.10;1.00
5150;DHT22;2593;52.466;13.436;2022-12-18T04:56:45;-6.00;1.00
5150;DHT22;2593;52.466;13.436;2022-12-18T04:59:10;-6.00;99.90
5150;DHT22;2593;52.466;13.436;2022-12-18T05:01:36;-5.90;99.90
5150;DHT22;2593;52.466;13.436;2022-12-18T05:04:03;-5.90;99.90
5150;DHT22;2593;52.466;13.436;2022-12-18T05:06:28;-6.00;99.90
5150;DHT22;2593;52.466;13.436;2022-12-18T05:08:54;-6.10;99.90
5150;DHT22;2593;52.466;13.436;2022-12-18T05:11:20;-6.00;99.90
5150;DHT22;2593;52.466;13.436;2022-12-18T05:13:46;-6.00;99.90
5150;DHT22;2593;52.466;13.436;2022-12-18T05:16:12;-6.00;99.90
5150;DHT22;2593;52.466;13.436;2022-12-18T05:18:39;-6.10;99.90
5150;DHT22;2593;52.466;13.436;2022-12-18T05:21:05;-6.10;99.90
5150;DHT22;2593;52.466;13.436;2022-12-18T05:23:31;-6.00;1.00
5150;DHT22;2593;52.466;13.436;2022-12-18T05:25:59;-5.80;1.00
5150;DHT22;2593;52.466;13.436;2022-12-18T05:28:28;-5.90;1.00
5150;DHT22;2593;52.466;13.436;2022-12-18T05:30:57;-5.90;1.00
5150;DHT22;2593;52.466;13.436;2022-12-18T05:33:25;-5.80;1.00
5150;DHT22;2593;52.466;13.436;2022-12-18T05:35:55;-5.90;1.00
5150;DHT22;2593;52.466;13.436;2022-12-18T05:38:22;-5.80;1.00
5150;DHT22;2593;52.466;13.436;2022-12-18T05:40:49;-5.80;1.00
5150;DHT22;2593;52.466;13.436;2022-12-18T05:43:15;-5.80;1.00
5150;DHT22;2593;52.466;13.436;2022-12-18T05:45:41;-5.70;1.00
5150;DHT22;2593;52.466;13.436;2022-12-18T05:48:08;-5.70;1.00
5150;DHT22;2593;52.466;13.436;2022-12-18T05:50:38;-5.50;1.00
5150;DHT22;2593;52.466;13.436;2022-12-18T05:53:05;-5.50;1.00
5150;DHT22;2593;52.466;13.436;2022-12-18T05:55:35;-5.50;99.90
5150;DHT22;2593;52.466;13.436;2022-12-18T05:58:01;-5.60;53.70
5150;DHT22;2593;52.466;13.436;2022-12-18T06:00:27;-5.80;1.00
5150;DHT22;2593;52.466;13.436;2022-12-18T06:02:52;-5.80;1.00
5150;DHT22;2593;52.466;13.436;2022-12-18T06:05:18;-5.80;99.90
5150;DHT22;2593;52.466;13.436;2022-12-18T06:07:44;-5.90;99.90
5150;DHT22;2593;52.466;13.436;2022-12-18T06:10:09;-5.90;99.90
5150;DHT22;2593;52.466;13.436;2022-12-18T06:12:35;-5.90;99.90
5150;DHT22;2593;52.466;13.436;2022-12-18T06:15:00;-5.80;1.00
5150;DHT22;2593;52.466;13.436;2022-12-18T06:17:30;-5.90;1.00
5150;DHT22;2593;52.466;13.436;2022-12-18T06:19:57;-5.90;1.00
5150;DHT22;2593;52.466;13.436;2022-12-18T06:22:22;-5.90;1.00
5150;DHT22;2593;52.466;13.436;2022-12-18T06:24:48;-5.90;1.00
5150;DHT22;2593;52.466;13.436;2022-12-18T06:27:14;-5.80;1.00
5150;DHT22;2593;52.466;13.436;2022-12-18T06:29:39;-5.70;1.00
5150;DHT22;2593;52.466;13.436;2022-12-18T06:32:05;-5.70;1.00
5150;DHT22;2593;52.466;13.436;2022-12-18T06:34:32;-5.60;1.00
5150;DHT22;2593;52.466;13.436;2022-12-18T06:36:58;-5.50;1.00
5150;DHT22;2593;52.466;13.436;2022-12-18T06:39:24;-5.50;1.00
5150;DHT22;2593;52.466;13.436;2022-12-18T06:41:50;-5.50;99.90
5150;DHT22;2593;52.466;13.436;2022-12-18T06:44:15;-5.50;99.90
5150;DHT22;2593;52.466;13.436;2022-12-18T06:46:41;-5.50;91.30
5150;DHT22;2593;52.466;13.436;2022-12-18T06:49:07;-5.60;20.90
5150;DHT22;2593;52.466;13.436;2022-12-18T06:51:34;-5.60;99.90
5150;DHT22;2593;52.466;13.436;2022-12-18T06:54:00;-5.70;99.90
5150;DHT22;2593;52.466;13.436;2022-12-18T06:56:26;-5.70;99.90
5150;DHT22;2593;52.466;13.436;2022-12-18T06:58:52;-5.70;99.90
5150;DHT22;2593;52.466;13.436;2022-12-18T07:01:18;-5.60;1.00
5150;DHT22;2593;52.466;13.436;2022-12-18T07:03:44;-5.60;1.00
5150;DHT22;2593;52.466;13.436;2022-12-18T07:06:15;-5.60;1.00
5150;DHT22;2593;52.466;13.436;2022-12-18T07:08:41;-5.50;1.00
5150;DHT22;2593;52.466;13.436;2022-12-18T07:11:07;-5.50;1.00
5150;DHT22;2593;52.466;13.436;2022-12-18T07:13:33;-5.40;99.90
5150;DHT22;2593;52.466;13.436;2022-12-18T07:16:10;-5.40;99.90
5150;DHT22;2593;52.466;13.436;2022-12-18T07:18:36;-5.50;99.90
5150;DHT22;2593;52.466;13.436;2022-12-18T07:21:04;-5.60;99.90
5150;DHT22;2593;52.466;13.436;2022-12-18T07:23:32;-5.60;99.90
5150;DHT22;2593;52.466;13.436;2022-12-18T07:26:04;-5.70;1.00
5150;DHT22;2593;52.466;13.436;2022-12-18T07:28:30;-5.70;1.00
5150;DHT22;2593;52.466;13.436;2022-12-18T07:30:56;-5.60;1.00
5150;DHT22;2593;52.466;13.436;2022-12-18T07:33:22;-5.50;1.00
5150;DHT22;2593;52.466;13.436;2022-12-18T07:35:47;-5.50;1.00
5150;DHT22;2593;52.466;13.436;2022-12-18T07:38:13;-5.40;1.00
5150;DHT22;2593;52.466;13.436;2022-12-18T07:40:38;-5.40;1.00
5150;DHT22;2593;52.466;13.436;2022-12-18T07:43:04;-5.50;1.00
5150;DHT22;2593;52.466;13.436;2022-12-18T07:45:30;-5.50;1.00
5150;DHT22;2593;52.466;13.436;2022-12-18T07:47:56;-5.60;1.00
5150;DHT22;2593;52.466;13.436;2022-12-18T07:50:21;-5.50;1.00
5150;DHT22;2593;52.466;13.436;2022-12-18T07:52:47;-5.60;1.00
5150;DHT22;2593;52.466;13.436;2022-12-18T07:55:13;-5.60;1.00
5150;DHT22;2593;52.466;13.436;2022-12-18T07:57:38;-5.60;1.00
5150;DHT22;2593;52.466;13.436;2022-12-18T08:00:04;-5.60;1.00
5150;DHT22;2593;52.466;13.436;2022-12-18T08:02:31;-5.60;1.00
5150;DHT22;2593;52.466;13.436;2022-12-18T08:04:57;-5.70;1.00
5150;DHT22;2593;52.466;13.436;2022-12-18T08:07:23;-5.70;1.00
5150;DHT22;2593;52.466;13.436;2022-12-18T08:09:49;-5.70;1.00
5150;DHT22;2593;52.466;13.436;2022-12-18T08:12:14;-5.60;28.40
5150;DHT22;2593;52.466;13.436;2022-12-18T08:14:40;-5.60;19.10
5150;DHT22;2593;52.466;13.436;2022-12-18T08:17:05;-5.70;9.70
5150;DHT22;2593;52.466;13.436;2022-12-18T08:19:31;-5.60;57.10
5150;DHT22;2593;52.466;13.436;2022-12-18T08:21:57;-5.70;7.30
5150;DHT22;2593;52.466;13.436;2022-12-18T08:24:22;-5.70;1.00
5150;DHT22;2593;52.466;13.436;2022-12-18T08:26:48;-5.70;1.00
5150;DHT22;2593;52.466;13.436;2022-12-18T08:29:14;-5.80;1.00
5150;DHT22;2593;52.466;13.436;2022-12-18T08:31:39;-5.80;1.00
5150;DHT22;2593;52.466;13.436;2022-12-18T08:34:05;-5.80;1.00
5150;DHT22;2593;52.466;13.436;2022-12-18T08:36:31;-5.80;1.00
5150;DHT22;2593;52.466;13.436;2022-12-18T08:38:57;-5.80;1.00
5150;DHT22;2593;52.466;13.436;2022-12-18T08:41:23;-5.90;33.70
5150;DHT22;2593;52.466;13.436;2022-12-18T08:43:48;-5.80;99.90
5150;DHT22;2593;52.466;13.436;2022-12-18T08:46:37;-5.70;99.90
5150;DHT22;2593;52.466;13.436;2022-12-18T08:49:04;-5.70;99.90
5150;DHT22;2593;52.466;13.436;2022-12-18T08:51:31;-5.60;99.90
5150;DHT22;2593;52.466;13.436;2022-12-18T08:53:57;-5.50;99.90
5150;DHT22;2593;52.466;13.436;2022-12-18T08:56:23;-5.50;29.80
5150;DHT22;2593;52.466;13.436;2022-12-18T08:58:52;-5.40;1.00
5150;DHT22;2593;52.466;13.436;2022-12-18T09:01:18;-5.40;1.00
5150;DHT22;2593;52.466;13.436;2022-12-18T09:03:44;-5.30;1.00
5150;DHT22;2593;52.466;13.436;2022-12-18T09:06:14;-5.30;1.00
5150;DHT22;2593;52.466;13.436;2022-12-18T09:08:41;-5.20;1.00
5150;DHT22;2593;52.466;13.436;2022-12-18T09:11:13;-5.20;99.90
5150;DHT22;2593;52.466;13.436;2022-12-18T09:13:39;-5.10;99.90
5150;DHT22;2593;52.466;13.436;2022-12-18T09:16:05;-5.00;1.00
5150;DHT22;2593;52.466;13.436;2022-12-18T09:18:30;-5.00;1.00
5150;DHT22;2593;52.466;13.436;2022-12-18T09:20:56;-5.00;1.00
5150;DHT22;2593;52.466;13.436;2022-12-18T09:23:22;-4.90;41.00
5150;DHT22;2593;52.466;13.436;2022-12-18T09:25:48;-4.90;99.90
5150;DHT22;2593;52.466;13.436;2022-12-18T09:28:16;-5.00;99.90
5150;DHT22;2593;52.466;13.436;2022-12-18T09:30:45;-5.00;99.90
5150;DHT22;2593;52.466;13.436;2022-12-18T09:33:10;-5.00;27.60
5150;DHT22;2593;52.466;13.436;2022-12-18T09:35:37;-5.00;99.90
5150;DHT22;2593;52.466;13.436;2022-12-18T09:38:03;-5.00;1.00
5150;DHT22;2593;52.466;13.436;2022-12-18T09:40:35;-5.00;1.00
5150;DHT22;2593;52.466;13.436;2022-12-18T09:43:04;-5.00;1.00
5150;DHT22;2593;52.466;13.436;2022-12-18T09:45:43;-4.90;67.40
5150;DHT22;2593;52.466;13.436;2022-12-18T09:48:18;-4.80;99.90
5150;DHT22;2593;52.466;13.436;2022-12-18T09:50:45;-4.80;99.90
5150;DHT22;2593;52.466;13.436;2022-12-18T09:53:17;-4.80;99.90
5150;DHT22;2593;52.466;13.436;2022-12-18T09:55:46;-4.80;99.90
5150;DHT22;2593;52.466;13.436;2022-12-18T10:00:44;-4.70;99.90
5150;DHT22;2593;52.466;13.436;2022-12-18T10:03:12;-4.60;99.90
5150;DHT22;2593;52.466;13.436;2022-12-18T10:10:53;-4.50;99.90
5150;DHT22;2593;52.466;13.436;2022-12-18T10:16:15;-4.50;99.90
5150;DHT22;2593;52.466;13.436;2022-12-18T10:19:02;-4.40;99.90
5150;DHT22;2593;52.466;13.436;2022-12-18T10:21:39;-4.30;99.90
5150;DHT22;2593;52.466;13.436;2022-12-18T10:26:50;-4.20;99.90
5150;DHT22;2593;52.466;13.436;2022-12-18T10:29:17;-4.30;99.90
5150;DHT22;2593;52.466;13.436;2022-12-18T10:31:43;-4.30;99.90
5150;DHT22;2593;52.466;13.436;2022-12-18T10:34:11;-4.20;99.90
5150;DHT22;2593;52.466;13.436;2022-12-18T10:36:37;-4.20;99.90
5150;DHT22;2593;52.466;13.436;2022-12-18T10:41:41;-4.10;99.90
5150;DHT22;2593;52.466;13.436;2022-12-18T10:44:23;-4.10;99.90
5150;DHT22;2593;52.466;13.436;2022-12-18T10:46:53;-4.10;99.90
5150;DHT22;2593;52.466;13.436;2022-12-18T10:49:29;-4.00;99.90
5150;DHT22;2593;52.466;13.436;2022-12-18T10:52:19;-4.00;99.90
5150;DHT22;2593;52.466;13.436;2022-12-18T10:54:53;-3.90;99.90
5150;DHT22;2593;52.466;13.436;2022-12-18T10:59:56;-4.00;99.90
5150;DHT22;2593;52.466;13.436;2022-12-18T11:02:35;-4.00;99.90
5150;DHT22;2593;52.466;13.436;2022-12-18T11:05:02;-3.80;99.90
5150;DHT22;2593;52.466;13.436;2022-12-18T11:07:51;-3.90;99.90
5150;DHT22;2593;52.466;13.436;2022-12-18T11:10:21;-4.00;27.80
5150;DHT22;2593;52.466;13.436;2022-12-18T11:12:47;-4.00;13.90
5150;DHT22;2593;52.466;13.436;2022-12-18T11:15:26;-3.90;1.00
5150;DHT22;2593;52.466;13.436;2022-12-18T11:17:53;-3.90;1.00
5150;DHT22;2593;52.466;13.436;2022-12-18T11:20:35;-3.80;1.00
5150;DHT22;2593;52.466;13.436;2022-12-18T11:23:04;-3.80;1.00
5150;DHT22;2593;52.466;13.436;2022-12-18T11:25:31;-3.80;1.00
5150;DHT22;2593;52.466;13.436;2022-12-18T11:31:20;-4.10;1.00
5150;DHT22;2593;52.466;13.436;2022-12-18T11:36:36;-4.20;99.90
5150;DHT22;2593;52.466;13.436;2022-12-18T11:39:15;-4.20;99.90
5150;DHT22;2593;52.466;13.436;2022-12-18T11:41:49;-4.20;99.90
5150;DHT22;2593;52.466;13.436;2022-12-18T11:47:49;-4.30;99.90
5150;DHT22;2593;52.466;13.436;2022-12-18T11:50:20;-4.30;99.90
5150;DHT22;2593;52.466;13.436;2022-12-18T11:52:47;-4.30;99.90
5150;DHT22;2593;52.466;13.436;2022-12-18T12:00:43;-4.20;99.90
5150;DHT22;2593;52.466;13.436;2022-12-18T12:11:17;-4.00;99.90
5150;DHT22;2593;52.466;13.436;2022-12-18T12:16:43;-3.90;99.90
5150;DHT22;2593;52.466;13.436;2022-12-18T12:19:18;-3.80;99.90
5150;DHT22;2593;52.466;13.436;2022-12-18T12:24:47;-3.90;99.90
5150;DHT22;2593;52.466;13.436;2022-12-18T12:27:16;-3.90;99.90
5150;DHT22;2593;52.466;13.436;2022-12-18T12:33:20;-3.80;99.90
5150;DHT22;2593;52.466;13.436;2022-12-18T12:36:41;-3.90;62.60
5150;DHT22;2593;52.466;13.436;2022-12-18T12:38:45;-3.80;61.70
5150;DHT22;2593;52.466;13.436;2022-12-18T12:41:14;-3.60;59.70
5150;DHT22;2593;52.466;13.436;2022-12-18T12:44:07;-3.60;6.40
5150;DHT22;2593;52.466;13.436;2022-12-18T12:46:37;-3.70;1.00
5150;DHT22;2593;52.466;13.436;2022-12-18T12:49:15;-3.70;1.00
5150;DHT22;2593;52.466;13.436;2022-12-18T12:51:46;-3.60;1.00
5150;DHT22;2593;52.466;13.436;2022-12-18T12:54:23;-3.60;1.00
5150;DHT22;2593;52.466;13.436;2022-12-18T13:05:30;-3.60;99.90
5150;DHT22;2593;52.466;13.436;2022-12-18T13:08:04;-3.60;99.90
5150;DHT22;2593;52.466;13.436;2022-12-18T13:10:37;-3.60;99.90
5150;DHT22;2593;52.466;13.436;2022-12-18T13:13:11;-3.70;99.90
5150;DHT22;2593;52.466;13.436;2022-12-18T13:15:44;-3.70;99.90
5150;DHT22;2593;52.466;13.436;2022-12-18T13:18:14;-3.70;99.90
5150;DHT22;2593;52.466;13.436;2022-12-18T13:25:54;-3.50;1.00
5150;DHT22;2593;52.466;13.436;2022-12-18T13:30:59;-3.40;1.00
5150;DHT22;2593;52.466;13.436;2022-12-18T13:38:35;-3.60;99.90
5150;DHT22;2593;52.466;13.436;2022-12-18T13:41:22;-3.60;99.90
5150;DHT22;2593;52.466;13.436;2022-12-18T13:43:49;-3.70;99.90
5150;DHT22;2593;52.466;13.436;2022-12-18T13:46:47;-3.70;1.00
5150;DHT22;2593;52.466;13.436;2022-12-18T13:51:44;-3.80;1.00
5150;DHT22;2593;52.466;13.436;2022-12-18T13:54:38;-3.90;1.00
5150;DHT22;2593;52.466;13.436;2022-12-18T13:57:25;-4.10;1.00
5150;DHT22;2593;52.466;13.436;2022-12-18T13:59:51;-4.00;83.60
5150;DHT22;2593;52.466;13.436;2022-12-18T14:02:21;-4.00;99.90
5150;DHT22;2593;52.466;13.436;2022-12-18T14:04:48;-4.00;99.90
5150;DHT22;2593;52.466;13.436;2022-12-18T14:07:22;-4.00;99.90
5150;DHT22;2593;52.466;13.436;2022-12-18T14:09:57;-4.00;73.40
5150;DHT22;2593;52.466;13.436;2022-12-18T14:12:27;-3.70;99.90
5150;DHT22;2593;52.466;13.436;2022-12-18T14:15:35;-3.60;99.90
5150;DHT22;2593;52.466;13.436;2022-12-18T14:18:21;-3.80;1.00
5150;DHT22;2593;52.466;13.436;2022-12-18T14:20:49;-3.80;1.00
5150;DHT22;2593;52.466;13.436;2022-12-18T14:23:39;-3.80;1.00
5150;DHT22;2593;52.466;13.436;2022-12-18T14:26:25;-3.70;1.00
5150;DHT22;2593;52.466;13.436;2022-12-18T14:28:52;-3.80;1.00
5150;DHT22;2593;52.466;13.436;2022-12-18T14:31:21;-3.70;1.00
5150;DHT22;2593;52.466;13.436;2022-12-18T14:33:47;-3.70;1.00
5150;DHT22;2593;52.466;13.436;2022-12-18T14:36:19;-3.80;1.00
5150;DHT22;2593;52.466;13.436;2022-12-18T14:38:58;-3.80;1.00
5150;DHT22;2593;52.466;13.436;2022-12-18T14:41:24;-3.80;1.00
5150;DHT22;2593;52.466;13.436;2022-12-18T14:43:52;-3.80;1.00
5150;DHT22;2593;52.466;13.436;2022-12-18T14:46:36;-3.90;49.80
5150;DHT22;2593;52.466;13.436;2022-12-18T14:51:59;-4.00;1.00
5150;DHT22;2593;52.466;13.436;2022-12-18T14:54:26;-4.20;1.00
5150;DHT22;2593;52.466;13.436;2022-12-18T14:59:27;-4.20;1.00
5150;DHT22;2593;52.466;13.436;2022-12-18T15:01:58;-4.20;1.00
5150;DHT22;2593;52.466;13.436;2022-12-18T15:04:36;-4.20;1.00
5150;DHT22;2593;52.466;13.436;2022-12-18T15:10:30;-4.20;97.70
5150;DHT22;2593;52.466;13.436;2022-12-18T15:12:46;-4.10;99.90
5150;DHT22;2593;52.466;13.436;2022-12-18T15:20:52;-4.00;1.00
5150;DHT22;2593;52.466;13.436;2022-12-18T15:23:21;-4.10;1.00
5150;DHT22;2593;52.466;13.436;2022-12-18T15:25:54;-4.10;1.00
5150;DHT22;2593;52.466;13.436;2022-12-18T15:28:28;-4.20;1.00
5150;DHT22;2593;52.466;13.436;2022-12-18T15:36:19;-4.20;1.00
5150;DHT22;2593;52.466;13.436;2022-12-18T15:38:49;-4.20;1.00
5150;DHT22;2593;52.466;13.436;2022-12-18T15:41:19;-4.20;1.00
5150;DHT22;2593;52.466;13.436;2022-12-18T15:43:46;-4.20;1.00
5150;DHT22;2593;52.466;13.436;2022-12-18T15:46:17;-4.20;1.00
5150;DHT22;2593;52.466;13.436;2022-12-18T15:48:54;-4.10;1.00
5150;DHT22;2593;52.466;13.436;2022-12-18T15:51:28;-4.00;1.00
5150;DHT22;2593;52.466;13.436;2022-12-18T15:53:57;-4.10;1.00
5150;DHT22;2593;52.466;13.436;2022-12-18T15:56:24;-4.00;99.90
5150;DHT22;2593;52.466;13.436;2022-12-18T15:59:19;-4.00;99.90
5150;DHT22;2593;52.466;13.436;2022-12-18T16:01:47;-4.00;99.90
5150;DHT22;2593;52.466;13.436;2022-12-18T16:04:15;-4.00;99.90
5150;DHT22;2593;52.466;13.436;2022-12-18T16:06:41;-4.00;99.90
5150;DHT22;2593;52.466;13.436;2022-12-18T16:09:07;-4.00;99.90
5150;DHT22;2593;52.466;13.436;2022-12-18T16:11:35;-4.10;99.90
5150;DHT22;2593;52.466;13.436;2022-12-18T16:14:25;-4.10;99.90
5150;DHT22;2593;52.466;13.436;2022-12-18T16:16:59;-4.10;1.00
5150;DHT22;2593;52.466;13.436;2022-12-18T16:19:26;-4.10;1.00
5150;DHT22;2593;52.466;13.436;2022-12-18T16:21:53;-4.10;1.00
5150;DHT22;2593;52.466;13.436;2022-12-18T16:24:28;-4.20;1.00
5150;DHT22;2593;52.466;13.436;2022-12-18T16:26:57;-4.20;99.90
5150;DHT22;2593;52.466;13.436;2022-12-18T16:29:25;-4.20;99.90
5150;DHT22;2593;52.466;13.436;2022-12-18T16:31:57;-4.10;99.90
5150;DHT22;2593;52.466;13.436;2022-12-18T16:34:28;-4.10;24.70
5150;DHT22;2593;52.466;13.436;2022-12-18T16:36:59;-4.10;1.00
5150;DHT22;2593;52.466;13.436;2022-12-18T16:39:26;-4.10;99.90
5150;DHT22;2593;52.466;13.436;2022-12-18T16:41:52;-4.00;99.90
5150;DHT22;2593;52.466;13.436;2022-12-18T16:44:18;-4.10;99.90
5150;DHT22;2593;52.466;13.436;2022-12-18T16:46:44;-4.10;99.90
5150;DHT22;2593;52.466;13.436;2022-12-18T16:49:17;-4.10;99.90
5150;DHT22;2593;52.466;13.436;2022-12-18T16:51:45;-4.20;99.90
5150;DHT22;2593;52.466;13.436;2022-12-18T16:54:11;-4.30;99.90
5150;DHT22;2593;52.466;13.436;2022-12-18T16:56:36;-4.20;1.00
5150;DHT22;2593;52.466;13.436;2022-12-18T16:59:03;-4.20;1.00
5150;DHT22;2593;52.466;13.436;2022-12-18T17:01:30;-4.20;1.00
5150;DHT22;2593;52.466;13.436;2022-12-18T17:03:58;-4.30;1.00
5150;DHT22;2593;52.466;13.436;2022-12-18T17:06:25;-4.30;99.90
5150;DHT22;2593;52.466;13.436;2022-12-18T17:08:58;-4.30;99.90
5150;DHT22;2593;52.466;13.436;2022-12-18T17:11:25;-4.30;99.90
5150;DHT22;2593;52.466;13.436;2022-12-18T17:13:51;-4.30;99.90
5150;DHT22;2593;52.466;13.436;2022-12-18T17:16:17;-4.30;99.90
5150;DHT22;2593;52.466;13.436;2022-12-18T17:18:43;-4.40;99.90
5150;DHT22;2593;52.466;13.436;2022-12-18T17:21:10;-4.40;99.90
5150;DHT22;2593;52.466;13.436;2022-12-18T17:23:37;-4.50;99.90
5150;DHT22;2593;52.466;13.436;2022-12-18T17:26:03;-4.50;1.00
5150;DHT22;2593;52.466;13.436;2022-12-18T17:28:32;-4.60;1.00
5150;DHT22;2593;52.466;13.436;2022-12-18T17:30:58;-4.60;1.00
5150;DHT22;2593;52.466;13.436;2022-12-18T17:33:23;-4.60;1.00
5150;DHT22;2593;52.466;13.436;2022-12-18T17:35:49;-4.50;1.00
5150;DHT22;2593;52.466;13.436;2022-12-18T17:38:16;-4.60;1.00
5150;DHT22;2593;52.466;13.436;2022-12-18T17:40:41;-4.60;1.00
5150;DHT22;2593;52.466;13.436;2022-12-18T17:43:08;-4.50;1.00
5150;DHT22;2593;52.466;13.436;2022-12-18T17:45:35;-4.60;1.00
5150;DHT22;2593;52.466;13.436;2022-12-18T17:48:02;-4.60;1.00
5150;DHT22;2593;52.466;13.436;2022-12-18T17:50:28;-4.60;1.00
5150;DHT22;2593;52.466;13.436;2022-12-18T17:52:55;-4.60;1.00
5150;DHT22;2593;52.466;13.436;2022-12-18T17:55:21;-4.60;1.00
5150;DHT22;2593;52.466;13.436;2022-12-18T17:57:47;-4.60;1.00
5150;DHT22;2593;52.466;13.436;2022-12-18T18:00:13;-4.60;1.00
5150;DHT22;2593;52.466;13.436;2022-12-18T18:02:39;-4.60;1.00
5150;DHT22;2593;52.466;13.436;2022-12-18T18:05:05;-4.60;1.00
5150;DHT22;2593;52.466;13.436;2022-12-18T18:07:31;-4.60;99.90
5150;DHT22;2593;52.466;13.436;2022-12-18T18:09:56;-4.60;99.90